Flight Track Log - Related Links

Times and Time Zones

All times are in EDT time to prevent confusion due to time zone crossing. See the SWR2806 flight status page for this flight to view local times or setup timezone preferences in your user account.

Time Position Orientation Groundspeed Altitude Reporting Facility
EDT Latitude Longitude Course Direction KTS MPH feet Rate Location/Type
Thu 07:52:32 AM 47.3598 8.3319 234° Southwest  Level Estimated
Thu 07:53:32 AM 47.3183 8.2464 234° Southwest  Level Estimated
Thu 07:54:32 AM 47.2767 8.1610 234° Southwest  Level Estimated
Thu 07:55:32 AM 47.2351 8.0757 234° Southwest  Level Estimated
Thu 07:56:32 AM 47.1847 7.9729 234° Southwest  Level Estimated
Thu 07:57:32 AM 47.1342 7.8702 234° Southwest  Level Estimated
Thu 07:58:32 AM 47.0836 7.7678 234° Southwest  Level Estimated
Thu 07:59:32 AM 47.0330 7.6655 234° Southwest  Level Estimated
Thu 08:00:32 AM 46.9822 7.5635 234° Southwest  Level Estimated
Thu 08:01:32 AM 46.9313 7.4616 234° Southwest  Level Estimated
Thu 08:02:32 AM 46.8804 7.3599 234° Southwest  Level Estimated
Thu 08:03:32 AM 46.8293 7.2585 234° Southwest  Level Estimated
Thu 08:04:32 AM 46.7782 7.1572 234° Southwest  Level Estimated
Thu 08:05:32 AM 46.7270 7.0561 233° Southwest  Level Estimated
Thu 08:06:32 AM 46.6757 6.9552 233° Southwest  Level Estimated
Thu 08:07:32 AM 46.6243 6.8545 233° Southwest  Level Estimated
Thu 08:08:32 AM 46.5728 6.7539 233° Southwest  Level Estimated
Thu 08:09:32 AM 46.5213 6.6536 233° Southwest  Level Estimated
Thu 08:10:32 AM 46.4696 6.5535 233° Southwest  Level Estimated
Thu 08:11:32 AM 46.4218 6.4612 233° Southwest  Level Estimated
Thu 08:12:32 AM 46.3740 6.3691 233° Southwest  Level Estimated
Thu 08:13:32 AM 46.3261 6.2771 233° Southwest  Level Estimated
Thu 08:14:32 AM 46.2781 6.1853 233° Southwest  Level Estimated
Thu 08:15:32 AM 46.2301 6.0937 53° Northeast  Level Estimated
Thu 08:16:32 AM 46.2781 6.1853 233° Southwest  Level Estimated
Thu 08:17:32 AM 46.2301 6.0937 53° Northeast  Level Estimated
Thu 08:18:32 AM 46.2781 6.1853 233° Southwest  Level Estimated
Thu 08:19:32 AM 46.2301 6.0937 53° Northeast  Level Estimated
Thu 08:20:32 AM 46.2781 6.1853 233° Southwest  Level Estimated
Thu 08:21:32 AM 46.2301 6.0937 53° Northeast  Level Estimated
Thu 08:22:32 AM 46.2781 6.1853 233° Southwest  Level Estimated
Thu 08:23:32 AM 46.2261 6.0861 53° Northeast  Level Estimated
Thu 08:24:32 AM 46.2781 6.1853 233° Southwest  Level Estimated
Thu 08:25:32 AM 46.2261 6.0861 53° Northeast  Level Estimated
Thu 08:26:32 AM 46.2781 6.1853 233° Southwest  Level Estimated
Thu 08:27:32 AM 46.2261 6.0861 53° Northeast  Level Estimated
Thu 08:28:32 AM 46.2781 6.1853 233° Southwest  Level Estimated
Thu 08:29:32 AM 46.2261 6.0861 233° Southwest  Level Estimated

Login

Don't have an account? Register now (free) for customized features, flight alerts, and more!